createdAt,value
2018-07-30T00:01:16.977Z,0.40
2018-07-30T00:03:50.560Z,0.77
2018-07-30T00:06:24.111Z,0.87
2018-07-30T00:08:57.208Z,0.57
2018-07-30T00:11:30.407Z,0.90
2018-07-30T00:14:03.646Z,0.70
2018-07-30T00:16:36.797Z,0.90
2018-07-30T00:19:10.046Z,1.63
2018-07-30T00:21:43.112Z,0.57
2018-07-30T00:24:16.270Z,1.30
2018-07-30T00:26:49.362Z,0.87
2018-07-30T00:29:22.548Z,0.90
2018-07-30T00:31:55.790Z,1.10
2018-07-30T00:34:28.923Z,1.22
2018-07-30T00:37:02.051Z,0.70
2018-07-30T00:39:35.197Z,1.93
2018-07-30T00:42:08.438Z,1.20
2018-07-30T00:44:41.657Z,0.70
2018-07-30T00:47:15.204Z,1.03
2018-07-30T00:49:48.384Z,2.73
2018-07-30T00:52:21.584Z,1.87
2018-07-30T00:54:54.797Z,1.80
2018-07-30T00:57:27.880Z,2.80
2018-07-30T01:00:01.049Z,1.70
2018-07-30T01:02:34.155Z,3.10
2018-07-30T01:05:07.261Z,2.57
2018-07-30T01:07:40.678Z,2.37
2018-07-30T01:10:13.841Z,2.73
2018-07-30T01:12:46.996Z,3.20
2018-07-30T01:15:20.224Z,2.57
2018-07-30T01:17:53.441Z,3.67
2018-07-30T01:20:26.578Z,2.30
2018-07-30T01:22:59.712Z,3.20
2018-07-30T01:25:33.161Z,2.40
2018-07-30T01:28:06.237Z,3.50
2018-07-30T01:30:39.456Z,3.37
2018-07-30T01:33:12.599Z,4.77
2018-07-30T01:35:45.709Z,2.30
2018-07-30T01:38:19.104Z,2.90
2018-07-30T01:40:52.170Z,1.87
2018-07-30T01:43:25.285Z,3.40
2018-07-30T01:45:58.495Z,2.60
2018-07-30T01:48:31.817Z,2.20
2018-07-30T01:51:05.063Z,2.33
2018-07-30T01:53:38.203Z,1.90
2018-07-30T01:56:11.247Z,2.83
2018-07-30T01:58:44.326Z,2.67
2018-07-30T02:01:17.600Z,1.43
2018-07-30T02:03:50.750Z,1.50
2018-07-30T02:06:24.784Z,1.60
2018-07-30T02:08:58.116Z,1.20
2018-07-30T02:11:31.231Z,2.60
2018-07-30T02:14:04.487Z,1.67
2018-07-30T02:16:37.530Z,1.20
2018-07-30T02:19:10.710Z,1.50
2018-07-30T02:21:43.969Z,1.10
2018-07-30T02:24:17.133Z,0.70
2018-07-30T02:26:50.261Z,0.70
2018-07-30T02:29:23.359Z,1.53
2018-07-30T02:31:56.548Z,1.23
2018-07-30T02:34:31.880Z,1.40
2018-07-30T02:37:05.075Z,1.23
2018-07-30T02:39:38.369Z,2.00
2018-07-30T02:42:11.645Z,1.27
2018-07-30T02:44:44.757Z,1.07
2018-07-30T02:47:17.832Z,1.33
2018-07-30T02:49:50.881Z,1.47
2018-07-30T02:52:24.223Z,1.40
2018-07-30T02:54:57.438Z,1.30
2018-07-30T02:57:30.677Z,1.20
2018-07-30T03:00:03.801Z,0.83
2018-07-30T03:02:36.755Z,0.83
2018-07-30T03:05:10.372Z,1.13
2018-07-30T03:07:43.479Z,1.27
2018-07-30T03:10:16.546Z,1.17
2018-07-30T03:12:49.563Z,0.80
2018-07-30T03:15:22.546Z,1.42
2018-07-30T03:17:55.658Z,1.00
2018-07-30T03:20:28.863Z,1.20
2018-07-30T03:23:03.003Z,1.13
2018-07-30T03:25:35.963Z,1.10
2018-07-30T03:28:09.251Z,1.10
2018-07-30T03:30:42.232Z,0.83
2018-07-30T03:33:15.208Z,0.83
2018-07-30T03:35:48.043Z,0.80
2018-07-30T03:38:21.033Z,1.00
2018-07-30T03:40:54.877Z,0.80
2018-07-30T03:43:27.700Z,0.70
2018-07-30T03:46:00.546Z,0.90
2018-07-30T03:48:33.528Z,0.97
2018-07-30T03:51:06.430Z,0.77
2018-07-30T03:53:39.448Z,0.70
2018-07-30T03:56:12.696Z,0.80
2018-07-30T03:58:46.001Z,1.00
2018-07-30T04:01:19.266Z,0.80
2018-07-30T04:03:52.467Z,1.00
2018-07-30T04:06:25.895Z,1.07
2018-07-30T04:08:59.105Z,1.03
2018-07-30T04:11:32.336Z,1.27
2018-07-30T04:14:05.628Z,1.10
2018-07-30T04:16:52.863Z,0.70
2018-07-30T04:19:25.940Z,1.22
2018-07-30T04:22:00.033Z,1.05
2018-07-30T04:24:33.277Z,0.50
2018-07-30T04:27:06.545Z,1.60
2018-07-30T04:29:39.780Z,0.70
2018-07-30T04:32:12.877Z,1.00
2018-07-30T04:34:46.109Z,0.80
2018-07-30T04:37:19.189Z,0.70
2018-07-30T04:39:52.352Z,0.70
2018-07-30T04:42:25.513Z,1.20
2018-07-30T04:44:58.652Z,0.70
2018-07-30T04:47:32.757Z,0.90
2018-07-30T04:50:06.033Z,0.60
2018-07-30T04:52:39.183Z,0.80
2018-07-30T04:55:12.430Z,1.13
2018-07-30T04:57:45.526Z,0.93
2018-07-30T05:00:18.679Z,1.17
2018-07-30T05:02:51.935Z,0.67
2018-07-30T05:05:25.107Z,1.20
2018-07-30T05:07:58.548Z,1.00
2018-07-30T05:10:31.879Z,0.73
2018-07-30T05:13:05.296Z,0.67
2018-07-30T05:15:39.409Z,0.50
2018-07-30T05:18:12.693Z,0.50
2018-07-30T05:20:45.821Z,0.87
2018-07-30T05:23:19.009Z,0.60
2018-07-30T05:25:52.173Z,0.77
2018-07-30T05:28:25.361Z,0.40
2018-07-30T05:30:58.510Z,0.40
2018-07-30T05:33:31.740Z,0.60
2018-07-30T05:36:05.027Z,0.60
2018-07-30T05:38:38.539Z,0.43
2018-07-30T05:41:12.284Z,0.43
2018-07-30T05:43:45.608Z,0.47
2018-07-30T05:46:18.820Z,0.50
2018-07-30T05:48:51.939Z,0.40
2018-07-30T05:51:25.260Z,0.50
2018-07-30T05:53:58.412Z,0.40
2018-07-30T05:56:31.698Z,0.50
2018-07-30T05:59:04.822Z,0.60
2018-07-30T06:01:38.068Z,0.60
2018-07-30T06:04:11.260Z,0.40
2018-07-30T06:06:44.421Z,0.40
2018-07-30T06:09:17.517Z,0.50
2018-07-30T06:12:01.957Z,0.80
2018-07-30T06:14:35.296Z,0.70
2018-07-30T06:17:08.577Z,0.40
2018-07-30T06:19:43.056Z,0.60
2018-07-30T06:22:16.654Z,0.50
2018-07-30T06:24:49.823Z,0.77
2018-07-30T06:27:23.041Z,0.60
2018-07-30T06:29:56.220Z,0.40
2018-07-30T06:32:30.272Z,0.67
2018-07-30T06:35:03.569Z,0.40
2018-07-30T06:37:36.678Z,0.63
2018-07-30T06:40:09.993Z,1.20
2018-07-30T06:42:43.248Z,1.03
2018-07-30T06:45:16.330Z,0.60
2018-07-30T06:47:49.544Z,0.73
2018-07-30T06:50:23.983Z,0.50
2018-07-30T06:52:57.372Z,0.77
2018-07-30T06:55:30.504Z,1.17
2018-07-30T06:58:03.647Z,0.60
2018-07-30T07:00:36.803Z,0.90
2018-07-30T07:03:09.964Z,0.60
2018-07-30T07:05:43.230Z,1.70
2018-07-30T07:08:16.407Z,1.00
2018-07-30T07:10:49.701Z,1.87
2018-07-30T07:13:22.787Z,0.80
2018-07-30T07:15:55.862Z,1.33
2018-07-30T07:18:28.991Z,0.70
2018-07-30T07:21:02.253Z,1.57
2018-07-30T07:23:35.678Z,1.00
2018-07-30T07:26:08.799Z,0.93
2018-07-30T07:28:42.042Z,1.37
2018-07-30T07:31:15.268Z,1.27
2018-07-30T07:33:48.956Z,1.00
2018-07-30T07:36:22.125Z,1.27
2018-07-30T07:38:55.170Z,0.70
2018-07-30T07:41:28.390Z,0.90
2018-07-30T07:44:01.577Z,0.70
2018-07-30T07:46:34.744Z,0.93
2018-07-30T07:49:07.866Z,1.00
2018-07-30T07:51:41.111Z,1.30
2018-07-30T07:54:14.462Z,0.97
2018-07-30T07:56:47.610Z,0.87
2018-07-30T07:59:21.098Z,0.93
2018-07-30T08:01:54.279Z,0.93
2018-07-30T08:04:27.374Z,0.70
2018-07-30T08:07:01.837Z,0.77
2018-07-30T08:09:35.073Z,0.83
2018-07-30T08:12:08.260Z,0.57
2018-07-30T08:14:41.345Z,0.50
2018-07-30T08:17:15.234Z,0.60
2018-07-30T08:19:48.344Z,0.40
2018-07-30T08:22:21.715Z,0.50
2018-07-30T08:24:55.082Z,0.50
2018-07-30T08:27:28.336Z,1.10
2018-07-30T08:30:02.226Z,0.60
2018-07-30T08:32:35.564Z,0.90
2018-07-30T08:35:09.129Z,0.67
2018-07-30T08:37:42.446Z,0.60
2018-07-30T08:40:15.675Z,0.50
2018-07-30T08:42:48.880Z,0.60
2018-07-30T08:45:22.310Z,0.82
2018-07-30T08:47:55.590Z,0.57
2018-07-30T08:50:28.813Z,0.60
2018-07-30T08:53:02.060Z,0.73
2018-07-30T08:55:35.198Z,0.50
2018-07-30T08:58:08.478Z,0.87
2018-07-30T09:00:41.615Z,0.50
2018-07-30T09:03:15.369Z,0.73
2018-07-30T09:05:48.453Z,0.60
2018-07-30T09:08:21.563Z,0.50
2018-07-30T09:10:54.692Z,0.90
2018-07-30T09:13:27.897Z,1.00
2018-07-30T09:16:01.122Z,0.60
2018-07-30T09:18:34.451Z,0.60
2018-07-30T09:21:07.713Z,0.50
2018-07-30T09:23:40.772Z,0.50
2018-07-30T09:26:13.858Z,0.40
2018-07-30T09:28:47.051Z,0.60
2018-07-30T09:31:20.251Z,0.60
2018-07-30T09:33:53.452Z,0.83
2018-07-30T09:36:28.506Z,0.47
2018-07-30T09:39:01.550Z,0.60
2018-07-30T09:41:34.757Z,0.60
2018-07-30T09:44:08.044Z,0.43
2018-07-30T09:46:41.456Z,0.40
2018-07-30T09:49:15.292Z,0.60
2018-07-30T09:51:48.369Z,0.40
2018-07-30T09:54:21.582Z,0.50
2018-07-30T09:56:56.915Z,0.40
2018-07-30T09:59:30.723Z,0.40
2018-07-30T10:02:03.913Z,0.40
2018-07-30T10:04:37.088Z,0.40
2018-07-30T10:07:10.328Z,0.50
2018-07-30T10:09:43.540Z,0.60
2018-07-30T10:12:16.683Z,0.40
2018-07-30T10:14:49.824Z,0.40
2018-07-30T10:17:23.024Z,0.55
2018-07-30T10:19:56.175Z,0.40
2018-07-30T10:22:29.328Z,0.60
2018-07-30T10:25:02.437Z,0.67
2018-07-30T10:27:35.511Z,0.30
2018-07-30T10:30:09.637Z,0.40
2018-07-30T10:32:42.772Z,0.50
2018-07-30T10:35:15.968Z,0.60
2018-07-30T10:37:49.154Z,1.03
2018-07-30T10:40:22.259Z,0.70
2018-07-30T10:42:55.447Z,0.97
2018-07-30T10:45:28.616Z,0.60
2018-07-30T10:48:03.640Z,0.50
2018-07-30T10:50:36.778Z,0.90
2018-07-30T10:53:11.455Z,0.40
2018-07-30T10:55:44.695Z,0.83
2018-07-30T10:58:17.824Z,0.70
2018-07-30T11:00:50.953Z,1.00
2018-07-30T11:03:24.310Z,0.50
2018-07-30T11:05:58.719Z,0.30
2018-07-30T11:08:31.819Z,0.50
2018-07-30T11:11:05.016Z,0.77
2018-07-30T11:13:38.091Z,0.60
2018-07-30T11:16:11.200Z,0.70
2018-07-30T11:18:45.421Z,0.40
2018-07-30T11:21:18.624Z,0.60
2018-07-30T11:23:51.790Z,0.40
2018-07-30T11:26:25.073Z,0.55
2018-07-30T11:28:58.137Z,0.40
2018-07-30T11:31:31.301Z,0.63
2018-07-30T11:34:04.384Z,0.60
2018-07-30T11:36:37.519Z,0.70
2018-07-30T11:39:14.172Z,0.73
2018-07-30T11:41:48.091Z,0.60
2018-07-30T11:44:21.173Z,0.50
2018-07-30T11:46:54.879Z,1.07
2018-07-30T11:49:28.108Z,0.50
2018-07-30T11:52:01.291Z,0.50
2018-07-30T11:54:34.497Z,0.50
2018-07-30T11:57:07.839Z,0.40
2018-07-30T11:59:40.910Z,0.50
2018-07-30T12:02:14.991Z,0.42
2018-07-30T12:04:48.132Z,0.43
2018-07-30T12:07:21.294Z,0.50
2018-07-30T12:09:54.410Z,0.50
2018-07-30T12:12:27.563Z,0.70
2018-07-30T12:15:00.786Z,0.40
2018-07-30T12:17:33.991Z,0.70
2018-07-30T12:20:07.152Z,0.67
2018-07-30T12:22:40.475Z,0.40
2018-07-30T12:25:13.588Z,0.43
2018-07-30T12:27:46.789Z,0.40
2018-07-30T12:30:20.047Z,0.60
2018-07-30T12:32:53.600Z,0.70
2018-07-30T12:35:26.855Z,0.80
2018-07-30T12:38:00.215Z,0.50
2018-07-30T12:40:36.790Z,0.40
2018-07-30T12:43:10.012Z,0.87
2018-07-30T12:45:47.958Z,0.67
2018-07-30T12:48:22.888Z,0.30
2018-07-30T12:50:56.240Z,0.40
2018-07-30T12:53:30.375Z,0.40
2018-07-30T12:56:03.526Z,0.40
2018-07-30T12:58:36.664Z,0.50
2018-07-30T13:01:09.776Z,0.70
2018-07-30T13:03:43.021Z,0.63
2018-07-30T13:06:17.354Z,0.50
2018-07-30T13:08:50.436Z,0.87
2018-07-30T13:11:23.642Z,0.80
2018-07-30T13:13:56.770Z,0.40
2018-07-30T13:16:29.877Z,0.40
2018-07-30T13:19:02.983Z,0.30
2018-07-30T13:21:36.193Z,0.40
2018-07-30T13:24:09.268Z,0.90
2018-07-30T13:26:42.483Z,0.30
2018-07-30T13:29:16.041Z,0.50
2018-07-30T13:31:49.138Z,0.90
2018-07-30T13:34:22.305Z,0.50
2018-07-30T13:36:55.410Z,0.50
2018-07-30T13:39:29.579Z,0.40
2018-07-30T13:42:02.932Z,0.40
2018-07-30T13:44:37.188Z,0.90
2018-07-30T13:47:11.252Z,0.43
2018-07-30T13:49:45.090Z,0.40
2018-07-30T13:52:18.893Z,0.40
2018-07-30T13:54:52.057Z,0.40
2018-07-30T13:57:25.262Z,0.47
2018-07-30T13:59:58.440Z,0.30
2018-07-30T14:02:31.644Z,0.90
2018-07-30T14:05:04.639Z,0.30
2018-07-30T14:07:37.718Z,0.80
2018-07-30T14:10:11.541Z,0.50
2018-07-30T14:12:44.851Z,0.50
2018-07-30T14:15:18.064Z,0.70
2018-07-30T14:17:51.328Z,0.50
2018-07-30T14:20:24.618Z,0.90
2018-07-30T14:23:02.136Z,0.57
2018-07-30T14:25:35.201Z,0.40
2018-07-30T14:28:08.691Z,0.60
2018-07-30T14:30:42.608Z,0.63
2018-07-30T14:33:15.708Z,0.40
2018-07-30T14:35:48.973Z,0.40
2018-07-30T14:38:22.132Z,1.97
2018-07-30T14:40:57.310Z,0.40
2018-07-30T14:43:30.459Z,0.93
2018-07-30T14:46:03.550Z,0.97
2018-07-30T14:48:37.069Z,0.60
2018-07-30T14:51:10.308Z,0.67
2018-07-30T14:53:43.569Z,1.37
2018-07-30T14:56:16.797Z,0.80
2018-07-30T14:58:49.879Z,0.40
2018-07-30T15:01:23.116Z,0.50
2018-07-30T15:03:57.325Z,0.57
2018-07-30T15:06:31.054Z,0.47
2018-07-30T15:09:04.512Z,0.40
2018-07-30T15:11:39.180Z,0.40
2018-07-30T15:14:12.426Z,0.40
2018-07-30T15:16:46.008Z,0.50
2018-07-30T15:19:19.690Z,0.63
2018-07-30T15:21:53.861Z,0.40
2018-07-30T15:24:27.622Z,0.40
2018-07-30T15:27:01.699Z,0.40
2018-07-30T15:29:35.053Z,0.50
2018-07-30T15:32:08.249Z,0.50
2018-07-30T15:34:42.452Z,0.43
2018-07-30T15:37:15.687Z,0.40
2018-07-30T15:39:48.747Z,0.70
2018-07-30T15:42:21.928Z,0.40
2018-07-30T15:44:55.961Z,0.30
2018-07-30T15:47:29.573Z,0.53
2018-07-30T15:50:02.713Z,0.30
2018-07-30T15:52:35.933Z,0.37
2018-07-30T15:55:09.047Z,0.73
2018-07-30T15:57:42.256Z,0.40
2018-07-30T16:00:15.463Z,0.70
2018-07-30T16:02:48.558Z,0.40
2018-07-30T16:05:21.679Z,0.30
2018-07-30T16:07:58.932Z,1.17
2018-07-30T16:10:32.093Z,0.30
2018-07-30T16:13:05.444Z,0.30
2018-07-30T16:15:38.569Z,0.87
2018-07-30T16:18:11.854Z,0.50
2018-07-30T16:20:45.045Z,0.30
2018-07-30T16:23:18.235Z,0.40
2018-07-30T16:25:51.521Z,0.40
2018-07-30T16:28:24.867Z,0.40
2018-07-30T16:30:58.079Z,0.30
2018-07-30T16:33:31.130Z,0.37
2018-07-30T16:36:04.238Z,0.50
2018-07-30T16:38:37.430Z,0.60
2018-07-30T16:41:10.639Z,0.40
2018-07-30T16:43:43.804Z,0.40
2018-07-30T16:46:17.408Z,0.30
2018-07-30T16:48:50.513Z,0.30
2018-07-30T16:51:23.653Z,0.40
2018-07-30T16:53:56.654Z,1.00
2018-07-30T16:56:29.867Z,0.40
2018-07-30T16:59:03.097Z,0.30
2018-07-30T17:01:36.181Z,0.40
2018-07-30T17:04:09.956Z,0.30
2018-07-30T17:06:43.309Z,0.40
2018-07-30T17:09:16.415Z,0.40
2018-07-30T17:11:49.644Z,0.50
2018-07-30T17:14:22.731Z,0.40
2018-07-30T17:16:55.983Z,0.30
2018-07-30T17:19:29.262Z,0.40
2018-07-30T17:22:02.363Z,0.30
2018-07-30T17:24:35.628Z,0.40
2018-07-30T17:27:08.991Z,0.40
2018-07-30T17:29:42.104Z,0.30
2018-07-30T17:32:15.296Z,0.43
2018-07-30T17:34:48.486Z,0.40
2018-07-30T17:37:21.538Z,0.30
2018-07-30T17:39:55.409Z,0.30
2018-07-30T17:42:28.656Z,0.33
2018-07-30T17:45:01.809Z,0.50
2018-07-30T17:47:34.894Z,0.30
2018-07-30T17:50:08.825Z,0.30
2018-07-30T17:55:19.335Z,0.30
2018-07-30T17:57:52.231Z,0.50
2018-07-30T18:00:25.130Z,0.30
2018-07-30T18:02:58.063Z,0.40
2018-07-30T18:05:30.909Z,0.30
2018-07-30T18:08:03.848Z,0.50
2018-07-30T18:10:36.796Z,1.13
2018-07-30T18:13:09.732Z,0.97
2018-07-30T18:15:42.690Z,0.90
2018-07-30T18:18:15.632Z,0.80
2018-07-30T18:20:48.502Z,0.80
2018-07-30T18:23:21.443Z,0.50
2018-07-30T18:25:54.547Z,0.50
2018-07-30T18:28:27.550Z,0.50
2018-07-30T18:31:00.598Z,0.50
2018-07-30T18:33:33.631Z,0.60
2018-07-30T18:36:06.607Z,0.50
2018-07-30T18:38:39.837Z,0.83
2018-07-30T18:41:12.888Z,0.60
2018-07-30T18:43:45.970Z,0.93
2018-07-30T18:46:19.092Z,0.40
2018-07-30T18:48:52.542Z,1.00
2018-07-30T18:51:25.585Z,0.90
2018-07-30T18:53:58.595Z,0.60
2018-07-30T18:56:31.643Z,1.47
2018-07-30T18:59:04.798Z,1.30
2018-07-30T19:01:37.815Z,0.63
2018-07-30T19:04:10.839Z,0.80
2018-07-30T19:06:43.899Z,0.40
2018-07-30T19:09:17.003Z,0.80
2018-07-30T19:11:49.966Z,0.60
2018-07-30T19:14:24.191Z,0.73
2018-07-30T19:16:57.246Z,1.00
2018-07-30T19:19:30.262Z,0.80
2018-07-30T19:22:03.303Z,1.00
2018-07-30T19:24:36.250Z,2.40
2018-07-30T19:27:09.779Z,1.00
2018-07-30T19:29:42.875Z,0.60
2018-07-30T19:32:16.012Z,0.87
2018-07-30T19:34:49.096Z,0.53
2018-07-30T19:37:22.180Z,0.70
2018-07-30T19:39:55.265Z,0.60
2018-07-30T19:42:28.342Z,0.50
2018-07-30T19:45:01.493Z,0.57
2018-07-30T19:47:34.530Z,1.00
2018-07-30T19:50:08.053Z,2.00
2018-07-30T19:52:41.173Z,0.80
2018-07-30T19:55:15.208Z,0.50
2018-07-30T19:57:48.467Z,0.80
2018-07-30T20:00:21.540Z,0.60
2018-07-30T20:02:54.625Z,0.60
2018-07-30T20:05:27.576Z,0.82
2018-07-30T20:08:01.052Z,0.30
2018-07-30T20:10:34.113Z,0.50
2018-07-30T20:13:07.082Z,0.40
2018-07-30T20:15:40.103Z,0.50
2018-07-30T20:18:13.187Z,0.50
2018-07-30T20:20:47.272Z,0.50
2018-07-30T20:23:20.294Z,0.60
2018-07-30T20:25:54.209Z,0.77
2018-07-30T20:28:27.346Z,0.30
2018-07-30T20:31:00.409Z,0.60
2018-07-30T20:33:33.698Z,0.50
2018-07-30T20:36:06.680Z,0.63
2018-07-30T20:38:39.706Z,0.57
2018-07-30T20:41:13.039Z,0.40
2018-07-30T20:43:46.277Z,0.80
2018-07-30T20:46:19.372Z,0.50
2018-07-30T20:48:52.491Z,0.40
2018-07-30T20:51:25.607Z,0.40
2018-07-30T20:53:58.655Z,0.60
2018-07-30T20:56:31.707Z,0.72
2018-07-30T20:59:04.773Z,1.23
2018-07-30T21:01:37.887Z,0.40
2018-07-30T21:04:10.837Z,0.50
2018-07-30T21:06:43.984Z,0.50
2018-07-30T21:09:17.002Z,0.63
2018-07-30T21:11:50.142Z,0.40
2018-07-30T21:14:23.235Z,0.40
2018-07-30T21:16:56.496Z,0.40
2018-07-30T21:19:29.502Z,0.60
2018-07-30T21:22:02.565Z,0.40
2018-07-30T21:24:35.539Z,1.40
2018-07-30T21:27:08.570Z,0.50
2018-07-30T21:29:42.569Z,0.57
2018-07-30T21:32:15.474Z,0.50
2018-07-30T21:34:48.535Z,0.30
2018-07-30T21:37:21.570Z,0.40
2018-07-30T21:39:54.715Z,0.50
2018-07-30T21:42:27.787Z,0.53
2018-07-30T21:45:00.794Z,0.40
2018-07-30T21:47:33.831Z,0.40
2018-07-30T21:50:06.844Z,0.30
2018-07-30T21:52:39.823Z,0.53
2018-07-30T21:55:12.840Z,0.60
2018-07-30T21:57:45.827Z,0.70
2018-07-30T22:00:32.851Z,0.63
2018-07-30T22:03:05.864Z,0.33
2018-07-30T22:05:38.831Z,0.40
2018-07-30T22:08:11.943Z,0.40
2018-07-30T22:10:44.930Z,0.40
2018-07-30T22:13:17.868Z,1.03
2018-07-30T22:15:51.358Z,0.40
2018-07-30T22:18:24.379Z,0.40
2018-07-30T22:20:57.315Z,0.40
2018-07-30T22:23:30.381Z,0.60
2018-07-30T22:26:03.436Z,0.43
2018-07-30T22:28:36.435Z,0.40
2018-07-30T22:31:09.932Z,0.67
2018-07-30T22:33:43.030Z,0.60
2018-07-30T22:36:15.985Z,0.43
2018-07-30T22:38:49.097Z,0.40
2018-07-30T22:41:22.256Z,0.40
2018-07-30T22:43:55.371Z,0.40
2018-07-30T22:46:29.324Z,0.55
2018-07-30T22:49:02.399Z,0.70
2018-07-30T22:51:35.382Z,0.87
2018-07-30T22:54:08.714Z,1.63
2018-07-30T22:56:41.764Z,0.60
2018-07-30T22:59:15.482Z,0.37
2018-07-30T23:01:48.410Z,0.40
2018-07-30T23:04:21.497Z,0.40
2018-07-30T23:06:54.618Z,0.30
2018-07-30T23:09:27.713Z,0.60
2018-07-30T23:12:01.830Z,0.67
2018-07-30T23:14:35.021Z,0.40
2018-07-30T23:17:08.275Z,0.40
2018-07-30T23:19:41.502Z,0.40
2018-07-30T23:22:15.259Z,0.50
2018-07-30T23:24:48.270Z,0.62
2018-07-30T23:27:21.158Z,0.30
2018-07-30T23:29:54.335Z,0.40
2018-07-30T23:32:27.442Z,0.40
2018-07-30T23:35:00.508Z,0.60
2018-07-30T23:37:33.615Z,0.40
2018-07-30T23:40:06.615Z,0.50
2018-07-30T23:42:39.703Z,0.50
2018-07-30T23:45:12.868Z,0.50
2018-07-30T23:47:45.956Z,0.40
2018-07-30T23:50:19.114Z,0.60
2018-07-30T23:52:52.320Z,0.40
2018-07-30T23:55:25.471Z,0.40
2018-07-30T23:57:59.479Z,0.30
